sensor_id;sensor_type;location;lat;lon;timestamp;P1;durP1;ratioP1;P2;durP2;ratioP2
37641;SDS011;23486;51.956;5.888;2022-09-30T00:01:46;12.45;;;9.48;;
37641;SDS011;23486;51.956;5.888;2022-09-30T00:04:16;13.80;;;9.85;;
37641;SDS011;23486;51.956;5.888;2022-09-30T00:06:46;14.52;;;9.90;;
37641;SDS011;23486;51.956;5.888;2022-09-30T00:09:12;12.93;;;9.63;;
37641;SDS011;23486;51.956;5.888;2022-09-30T00:11:38;11.80;;;8.98;;
37641;SDS011;23486;51.956;5.888;2022-09-30T00:14:06;13.77;;;9.82;;
37641;SDS011;23486;51.956;5.888;2022-09-30T00:16:36;13.45;;;9.77;;
37641;SDS011;23486;51.956;5.888;2022-09-30T00:19:02;11.95;;;8.73;;
37641;SDS011;23486;51.956;5.888;2022-09-30T00:21:30;12.40;;;8.95;;
37641;SDS011;23486;51.956;5.888;2022-09-30T00:23:57;10.77;;;8.38;;
37641;SDS011;23486;51.956;5.888;2022-09-30T00:26:23;13.13;;;9.80;;
37641;SDS011;23486;51.956;5.888;2022-09-30T00:28:50;11.18;;;8.07;;
37641;SDS011;23486;51.956;5.888;2022-09-30T00:31:17;12.52;;;9.45;;
37641;SDS011;23486;51.956;5.888;2022-09-30T00:33:44;10.73;;;8.55;;
37641;SDS011;23486;51.956;5.888;2022-09-30T00:36:29;13.68;;;9.52;;
37641;SDS011;23486;51.956;5.888;2022-09-30T00:38:55;11.45;;;8.27;;
37641;SDS011;23486;51.956;5.888;2022-09-30T00:41:20;12.60;;;8.27;;
37641;SDS011;23486;51.956;5.888;2022-09-30T00:43:47;11.45;;;8.75;;
37641;SDS011;23486;51.956;5.888;2022-09-30T00:49:05;11.82;;;8.00;;
37641;SDS011;23486;51.956;5.888;2022-09-30T00:51:38;12.77;;;9.23;;
37641;SDS011;23486;51.956;5.888;2022-09-30T00:54:12;12.40;;;8.35;;
37641;SDS011;23486;51.956;5.888;2022-09-30T00:56:46;11.65;;;8.10;;
37641;SDS011;23486;51.956;5.888;2022-09-30T00:59:17;9.60;;;7.30;;
37641;SDS011;23486;51.956;5.888;2022-09-30T01:01:47;11.65;;;8.65;;
37641;SDS011;23486;51.956;5.888;2022-09-30T01:04:22;12.48;;;8.38;;
37641;SDS011;23486;51.956;5.888;2022-09-30T01:06:49;11.48;;;8.52;;
37641;SDS011;23486;51.956;5.888;2022-09-30T01:09:18;10.25;;;8.05;;
37641;SDS011;23486;51.956;5.888;2022-09-30T01:11:44;11.57;;;9.10;;
37641;SDS011;23486;51.956;5.888;2022-09-30T01:14:18;10.90;;;8.48;;
37641;SDS011;23486;51.956;5.888;2022-09-30T01:22:03;12.15;;;8.55;;
37641;SDS011;23486;51.956;5.888;2022-09-30T01:35:24;10.95;;;8.02;;
37641;SDS011;23486;51.956;5.888;2022-09-30T01:38:11;11.18;;;7.97;;
37641;SDS011;23486;51.956;5.888;2022-09-30T01:41:08;12.10;;;7.65;;
37641;SDS011;23486;51.956;5.888;2022-09-30T01:52:14;10.63;;;7.13;;
37641;SDS011;23486;51.956;5.888;2022-09-30T01:57:15;12.45;;;8.25;;
37641;SDS011;23486;51.956;5.888;2022-09-30T01:59:53;11.18;;;8.20;;
37641;SDS011;23486;51.956;5.888;2022-09-30T02:02:27;9.52;;;7.47;;
37641;SDS011;23486;51.956;5.888;2022-09-30T02:05:04;10.38;;;6.65;;
37641;SDS011;23486;51.956;5.888;2022-09-30T02:07:39;12.88;;;8.18;;
37641;SDS011;23486;51.956;5.888;2022-09-30T02:10:11;11.52;;;8.43;;
37641;SDS011;23486;51.956;5.888;2022-09-30T02:12:46;11.95;;;8.27;;
37641;SDS011;23486;51.956;5.888;2022-09-30T02:15:29;11.43;;;8.27;;
37641;SDS011;23486;51.956;5.888;2022-09-30T02:18:06;10.40;;;8.35;;
37641;SDS011;23486;51.956;5.888;2022-09-30T02:20:40;11.13;;;8.00;;
37641;SDS011;23486;51.956;5.888;2022-09-30T02:23:13;11.30;;;8.00;;
37641;SDS011;23486;51.956;5.888;2022-09-30T02:25:44;8.75;;;7.00;;
37641;SDS011;23486;51.956;5.888;2022-09-30T02:28:16;10.70;;;7.57;;
37641;SDS011;23486;51.956;5.888;2022-09-30T02:30:48;10.48;;;7.60;;
37641;SDS011;23486;51.956;5.888;2022-09-30T02:33:19;10.15;;;6.75;;
37641;SDS011;23486;51.956;5.888;2022-09-30T02:35:53;10.50;;;7.60;;
37641;SDS011;23486;51.956;5.888;2022-09-30T02:38:25;10.88;;;8.32;;
37641;SDS011;23486;51.956;5.888;2022-09-30T02:40:55;11.38;;;7.10;;
37641;SDS011;23486;51.956;5.888;2022-09-30T02:43:26;12.18;;;8.52;;
37641;SDS011;23486;51.956;5.888;2022-09-30T02:48:40;10.23;;;7.78;;
37641;SDS011;23486;51.956;5.888;2022-09-30T02:53:51;10.70;;;7.43;;
37641;SDS011;23486;51.956;5.888;2022-09-30T02:56:41;10.00;;;6.97;;
37641;SDS011;23486;51.956;5.888;2022-09-30T02:59:19;11.35;;;7.68;;
37641;SDS011;23486;51.956;5.888;2022-09-30T03:01:46;10.52;;;7.35;;
37641;SDS011;23486;51.956;5.888;2022-09-30T03:04:13;9.40;;;7.20;;
37641;SDS011;23486;51.956;5.888;2022-09-30T03:06:41;11.90;;;7.38;;
37641;SDS011;23486;51.956;5.888;2022-09-30T03:09:07;9.07;;;7.13;;
37641;SDS011;23486;51.956;5.888;2022-09-30T03:11:33;9.93;;;7.85;;
37641;SDS011;23486;51.956;5.888;2022-09-30T03:14:42;10.45;;;7.28;;
37641;SDS011;23486;51.956;5.888;2022-09-30T03:28:23;11.38;;;7.65;;
37641;SDS011;23486;51.956;5.888;2022-09-30T03:31:35;10.60;;;7.57;;
37641;SDS011;23486;51.956;5.888;2022-09-30T03:34:45;11.95;;;8.10;;
37641;SDS011;23486;51.956;5.888;2022-09-30T03:37:07;12.20;;;8.77;;
37641;SDS011;23486;51.956;5.888;2022-09-30T03:39:52;11.88;;;7.78;;
37641;SDS011;23486;51.956;5.888;2022-09-30T03:42:39;12.88;;;9.05;;
37641;SDS011;23486;51.956;5.888;2022-09-30T03:45:21;12.68;;;7.43;;
37641;SDS011;23486;51.956;5.888;2022-09-30T03:47:56;11.88;;;8.20;;
37641;SDS011;23486;51.956;5.888;2022-09-30T03:50:26;9.88;;;7.25;;
37641;SDS011;23486;51.956;5.888;2022-09-30T03:52:53;12.88;;;7.60;;
37641;SDS011;23486;51.956;5.888;2022-09-30T03:55:19;14.15;;;8.65;;
37641;SDS011;23486;51.956;5.888;2022-09-30T03:57:47;12.95;;;7.55;;
37641;SDS011;23486;51.956;5.888;2022-09-30T04:00:13;13.75;;;8.27;;
37641;SDS011;23486;51.956;5.888;2022-09-30T04:02:39;11.43;;;8.38;;
37641;SDS011;23486;51.956;5.888;2022-09-30T04:05:05;11.60;;;8.02;;
37641;SDS011;23486;51.956;5.888;2022-09-30T04:07:32;12.45;;;7.53;;
37641;SDS011;23486;51.956;5.888;2022-09-30T04:09:58;11.20;;;7.75;;
37641;SDS011;23486;51.956;5.888;2022-09-30T04:12:24;12.30;;;8.23;;
37641;SDS011;23486;51.956;5.888;2022-09-30T04:14:52;10.50;;;7.63;;
37641;SDS011;23486;51.956;5.888;2022-09-30T04:17:18;12.30;;;7.22;;
37641;SDS011;23486;51.956;5.888;2022-09-30T04:19:43;12.40;;;8.20;;
37641;SDS011;23486;51.956;5.888;2022-09-30T04:22:09;11.52;;;7.40;;
37641;SDS011;23486;51.956;5.888;2022-09-30T04:24:35;11.20;;;8.13;;
37641;SDS011;23486;51.956;5.888;2022-09-30T04:27:01;11.43;;;8.02;;
37641;SDS011;23486;51.956;5.888;2022-09-30T04:29:27;10.10;;;7.57;;
37641;SDS011;23486;51.956;5.888;2022-09-30T04:31:53;12.38;;;8.38;;
37641;SDS011;23486;51.956;5.888;2022-09-30T04:34:19;10.38;;;7.13;;
37641;SDS011;23486;51.956;5.888;2022-09-30T04:36:44;10.85;;;7.40;;
37641;SDS011;23486;51.956;5.888;2022-09-30T04:39:10;10.95;;;8.20;;
37641;SDS011;23486;51.956;5.888;2022-09-30T04:41:35;11.82;;;7.97;;
37641;SDS011;23486;51.956;5.888;2022-09-30T04:44:05;11.93;;;7.40;;
37641;SDS011;23486;51.956;5.888;2022-09-30T04:46:31;10.48;;;7.70;;
37641;SDS011;23486;51.956;5.888;2022-09-30T04:48:58;9.80;;;7.30;;
37641;SDS011;23486;51.956;5.888;2022-09-30T04:51:24;9.32;;;6.82;;
37641;SDS011;23486;51.956;5.888;2022-09-30T04:53:51;12.60;;;8.68;;
37641;SDS011;23486;51.956;5.888;2022-09-30T04:56:16;11.43;;;8.20;;
37641;SDS011;23486;51.956;5.888;2022-09-30T04:58:43;10.23;;;7.22;;
37641;SDS011;23486;51.956;5.888;2022-09-30T05:01:10;10.57;;;7.05;;
37641;SDS011;23486;51.956;5.888;2022-09-30T05:03:37;12.40;;;7.90;;
37641;SDS011;23486;51.956;5.888;2022-09-30T05:06:04;10.80;;;7.70;;
37641;SDS011;23486;51.956;5.888;2022-09-30T05:08:30;11.45;;;7.10;;
37641;SDS011;23486;51.956;5.888;2022-09-30T05:10:59;10.20;;;7.40;;
37641;SDS011;23486;51.956;5.888;2022-09-30T05:13:33;11.52;;;7.72;;
37641;SDS011;23486;51.956;5.888;2022-09-30T05:16:00;11.68;;;7.95;;
37641;SDS011;23486;51.956;5.888;2022-09-30T05:18:26;12.38;;;8.45;;
37641;SDS011;23486;51.956;5.888;2022-09-30T05:20:53;10.80;;;7.85;;
37641;SDS011;23486;51.956;5.888;2022-09-30T05:23:21;9.98;;;6.43;;
37641;SDS011;23486;51.956;5.888;2022-09-30T05:25:48;11.05;;;8.02;;
37641;SDS011;23486;51.956;5.888;2022-09-30T05:28:18;11.00;;;7.55;;
37641;SDS011;23486;51.956;5.888;2022-09-30T05:30:44;11.38;;;7.53;;
37641;SDS011;23486;51.956;5.888;2022-09-30T05:33:12;10.93;;;7.82;;
37641;SDS011;23486;51.956;5.888;2022-09-30T05:35:41;11.18;;;7.85;;
37641;SDS011;23486;51.956;5.888;2022-09-30T05:38:07;11.63;;;8.15;;
37641;SDS011;23486;51.956;5.888;2022-09-30T05:40:36;12.07;;;8.70;;
37641;SDS011;23486;51.956;5.888;2022-09-30T05:43:03;12.68;;;8.45;;
37641;SDS011;23486;51.956;5.888;2022-09-30T05:45:29;13.77;;;9.27;;
37641;SDS011;23486;51.956;5.888;2022-09-30T05:47:55;15.05;;;10.63;;
37641;SDS011;23486;51.956;5.888;2022-09-30T05:50:21;14.90;;;9.35;;
37641;SDS011;23486;51.956;5.888;2022-09-30T05:52:48;12.57;;;9.20;;
37641;SDS011;23486;51.956;5.888;2022-09-30T05:55:17;14.73;;;8.93;;
37641;SDS011;23486;51.956;5.888;2022-09-30T05:57:46;15.18;;;10.10;;
37641;SDS011;23486;51.956;5.888;2022-09-30T06:00:12;12.77;;;9.43;;
37641;SDS011;23486;51.956;5.888;2022-09-30T06:02:38;14.13;;;8.85;;
37641;SDS011;23486;51.956;5.888;2022-09-30T06:05:07;12.40;;;8.82;;
37641;SDS011;23486;51.956;5.888;2022-09-30T06:07:33;13.13;;;8.93;;
37641;SDS011;23486;51.956;5.888;2022-09-30T06:10:00;13.35;;;8.85;;
37641;SDS011;23486;51.956;5.888;2022-09-30T06:12:27;12.50;;;8.65;;
37641;SDS011;23486;51.956;5.888;2022-09-30T06:14:53;12.48;;;8.52;;
37641;SDS011;23486;51.956;5.888;2022-09-30T06:17:19;13.98;;;9.52;;
37641;SDS011;23486;51.956;5.888;2022-09-30T06:19:46;12.00;;;8.00;;
37641;SDS011;23486;51.956;5.888;2022-09-30T06:22:13;15.40;;;9.68;;
37641;SDS011;23486;51.956;5.888;2022-09-30T06:24:40;14.10;;;9.75;;
37641;SDS011;23486;51.956;5.888;2022-09-30T06:27:05;13.30;;;9.88;;
37641;SDS011;23486;51.956;5.888;2022-09-30T06:29:31;14.55;;;10.10;;
37641;SDS011;23486;51.956;5.888;2022-09-30T06:31:56;14.40;;;9.05;;
37641;SDS011;23486;51.956;5.888;2022-09-30T06:34:26;15.70;;;10.02;;
37641;SDS011;23486;51.956;5.888;2022-09-30T06:36:54;14.98;;;10.10;;
37641;SDS011;23486;51.956;5.888;2022-09-30T06:39:19;13.73;;;10.30;;
37641;SDS011;23486;51.956;5.888;2022-09-30T06:41:45;17.48;;;10.20;;
37641;SDS011;23486;51.956;5.888;2022-09-30T06:44:11;14.55;;;10.57;;
37641;SDS011;23486;51.956;5.888;2022-09-30T06:46:39;14.85;;;10.45;;
37641;SDS011;23486;51.956;5.888;2022-09-30T06:49:05;14.32;;;10.55;;
37641;SDS011;23486;51.956;5.888;2022-09-30T06:51:31;14.15;;;10.25;;
37641;SDS011;23486;51.956;5.888;2022-09-30T06:54:00;13.88;;;10.75;;
37641;SDS011;23486;51.956;5.888;2022-09-30T06:56:26;13.77;;;10.70;;
37641;SDS011;23486;51.956;5.888;2022-09-30T06:58:52;13.20;;;10.07;;
37641;SDS011;23486;51.956;5.888;2022-09-30T07:01:19;13.15;;;10.45;;
37641;SDS011;23486;51.956;5.888;2022-09-30T07:03:45;16.17;;;10.90;;
37641;SDS011;23486;51.956;5.888;2022-09-30T07:06:12;18.33;;;12.65;;
37641;SDS011;23486;51.956;5.888;2022-09-30T07:08:47;18.98;;;12.82;;
37641;SDS011;23486;51.956;5.888;2022-09-30T07:11:13;19.70;;;14.07;;
37641;SDS011;23486;51.956;5.888;2022-09-30T07:13:40;22.30;;;16.35;;
37641;SDS011;23486;51.956;5.888;2022-09-30T07:16:07;20.27;;;14.38;;
37641;SDS011;23486;51.956;5.888;2022-09-30T07:18:38;22.70;;;15.48;;
37641;SDS011;23486;51.956;5.888;2022-09-30T07:21:06;26.75;;;16.95;;
37641;SDS011;23486;51.956;5.888;2022-09-30T07:23:32;25.20;;;17.13;;
37641;SDS011;23486;51.956;5.888;2022-09-30T07:25:59;29.58;;;20.35;;
37641;SDS011;23486;51.956;5.888;2022-09-30T07:28:29;26.90;;;20.13;;
37641;SDS011;23486;51.956;5.888;2022-09-30T07:31:00;31.60;;;18.92;;
37641;SDS011;23486;51.956;5.888;2022-09-30T07:33:30;34.78;;;20.75;;
37641;SDS011;23486;51.956;5.888;2022-09-30T07:35:57;33.08;;;22.35;;
37641;SDS011;23486;51.956;5.888;2022-09-30T07:38:25;27.98;;;20.67;;
37641;SDS011;23486;51.956;5.888;2022-09-30T07:41:07;31.90;;;22.23;;
37641;SDS011;23486;51.956;5.888;2022-09-30T07:43:36;34.47;;;22.77;;
37641;SDS011;23486;51.956;5.888;2022-09-30T07:46:05;37.97;;;24.30;;
37641;SDS011;23486;51.956;5.888;2022-09-30T07:48:36;34.88;;;24.30;;
37641;SDS011;23486;51.956;5.888;2022-09-30T07:51:03;41.13;;;26.40;;
37641;SDS011;23486;51.956;5.888;2022-09-30T07:53:29;38.13;;;25.33;;
37641;SDS011;23486;51.956;5.888;2022-09-30T07:55:54;43.47;;;29.27;;
37641;SDS011;23486;51.956;5.888;2022-09-30T07:58:20;41.17;;;28.13;;
37641;SDS011;23486;51.956;5.888;2022-09-30T08:00:46;41.03;;;28.13;;
37641;SDS011;23486;51.956;5.888;2022-09-30T08:03:14;44.35;;;31.30;;
37641;SDS011;23486;51.956;5.888;2022-09-30T08:05:41;48.05;;;32.88;;
37641;SDS011;23486;51.956;5.888;2022-09-30T08:08:11;45.53;;;32.85;;
37641;SDS011;23486;51.956;5.888;2022-09-30T08:10:37;45.50;;;31.15;;
37641;SDS011;23486;51.956;5.888;2022-09-30T08:13:02;44.90;;;32.50;;
37641;SDS011;23486;51.956;5.888;2022-09-30T08:15:28;53.05;;;35.65;;
37641;SDS011;23486;51.956;5.888;2022-09-30T08:17:53;49.80;;;34.63;;
37641;SDS011;23486;51.956;5.888;2022-09-30T08:20:19;47.67;;;34.45;;
37641;SDS011;23486;51.956;5.888;2022-09-30T08:22:44;49.05;;;35.35;;
37641;SDS011;23486;51.956;5.888;2022-09-30T08:25:10;47.38;;;34.95;;
37641;SDS011;23486;51.956;5.888;2022-09-30T08:27:36;57.60;;;40.33;;
37641;SDS011;23486;51.956;5.888;2022-09-30T08:30:03;51.53;;;37.17;;
37641;SDS011;23486;51.956;5.888;2022-09-30T08:32:29;48.53;;;36.20;;
37641;SDS011;23486;51.956;5.888;2022-09-30T08:34:55;52.25;;;36.25;;
37641;SDS011;23486;51.956;5.888;2022-09-30T08:37:20;48.67;;;36.42;;
37641;SDS011;23486;51.956;5.888;2022-09-30T08:39:46;48.63;;;37.17;;
37641;SDS011;23486;51.956;5.888;2022-09-30T08:42:15;49.35;;;36.72;;
37641;SDS011;23486;51.956;5.888;2022-09-30T08:51:01;39.13;;;30.35;;
37641;SDS011;23486;51.956;5.888;2022-09-30T08:53:53;42.03;;;32.80;;
37641;SDS011;23486;51.956;5.888;2022-09-30T08:56:23;44.42;;;33.05;;
37641;SDS011;23486;51.956;5.888;2022-09-30T08:58:58;39.38;;;31.92;;
37641;SDS011;23486;51.956;5.888;2022-09-30T09:01:34;39.15;;;31.35;;
37641;SDS011;23486;51.956;5.888;2022-09-30T09:04:04;37.47;;;31.30;;
37641;SDS011;23486;51.956;5.888;2022-09-30T09:06:37;36.97;;;29.95;;
37641;SDS011;23486;51.956;5.888;2022-09-30T09:20:34;32.55;;;27.77;;
37641;SDS011;23486;51.956;5.888;2022-09-30T09:22:33;32.03;;;27.67;;
37641;SDS011;23486;51.956;5.888;2022-09-30T09:25:00;29.30;;;25.63;;
37641;SDS011;23486;51.956;5.888;2022-09-30T09:30:32;30.83;;;26.35;;
37641;SDS011;23486;51.956;5.888;2022-09-30T09:33:16;29.42;;;25.40;;
37641;SDS011;23486;51.956;5.888;2022-09-30T09:44:31;32.63;;;25.20;;
37641;SDS011;23486;51.956;5.888;2022-09-30T09:47:01;33.00;;;28.33;;
37641;SDS011;23486;51.956;5.888;2022-09-30T09:49:30;28.15;;;25.13;;
37641;SDS011;23486;51.956;5.888;2022-09-30T09:54:38;28.58;;;23.30;;
37641;SDS011;23486;51.956;5.888;2022-09-30T09:57:16;23.95;;;21.45;;
37641;SDS011;23486;51.956;5.888;2022-09-30T09:59:57;28.25;;;24.90;;
37641;SDS011;23486;51.956;5.888;2022-09-30T10:02:45;25.73;;;22.90;;
37641;SDS011;23486;51.956;5.888;2022-09-30T10:05:23;25.48;;;22.30;;
37641;SDS011;23486;51.956;5.888;2022-09-30T10:10:47;21.60;;;19.27;;
37641;SDS011;23486;51.956;5.888;2022-09-30T10:13:24;25.38;;;22.27;;
37641;SDS011;23486;51.956;5.888;2022-09-30T10:16:02;22.42;;;19.58;;
37641;SDS011;23486;51.956;5.888;2022-09-30T10:18:31;20.73;;;18.20;;
37641;SDS011;23486;51.956;5.888;2022-09-30T10:21:01;24.02;;;21.15;;
37641;SDS011;23486;51.956;5.888;2022-09-30T10:23:43;21.80;;;19.42;;
37641;SDS011;23486;51.956;5.888;2022-09-30T10:28:49;21.35;;;18.85;;
37641;SDS011;23486;51.956;5.888;2022-09-30T10:33:54;17.40;;;15.57;;
37641;SDS011;23486;51.956;5.888;2022-09-30T10:36:21;22.35;;;19.95;;
37641;SDS011;23486;51.956;5.888;2022-09-30T10:41:43;21.40;;;17.92;;
37641;SDS011;23486;51.956;5.888;2022-09-30T10:44:14;19.42;;;17.50;;
37641;SDS011;23486;51.956;5.888;2022-09-30T10:46:42;18.55;;;16.55;;
37641;SDS011;23486;51.956;5.888;2022-09-30T10:49:19;17.92;;;16.13;;
37641;SDS011;23486;51.956;5.888;2022-09-30T10:51:48;18.33;;;16.42;;
37641;SDS011;23486;51.956;5.888;2022-09-30T10:57:13;15.85;;;14.30;;
37641;SDS011;23486;51.956;5.888;2022-09-30T10:59:42;17.63;;;15.20;;
37641;SDS011;23486;51.956;5.888;2022-09-30T11:10:43;15.68;;;12.98;;
37641;SDS011;23486;51.956;5.888;2022-09-30T11:13:15;13.50;;;12.15;;
37641;SDS011;23486;51.956;5.888;2022-09-30T11:18:29;13.35;;;11.07;;
37641;SDS011;23486;51.956;5.888;2022-09-30T11:21:15;11.60;;;10.45;;
37641;SDS011;23486;51.956;5.888;2022-09-30T11:23:51;11.10;;;9.95;;
37641;SDS011;23486;51.956;5.888;2022-09-30T11:26:40;11.43;;;9.35;;
37641;SDS011;23486;51.956;5.888;2022-09-30T11:46:00;16.25;;;12.93;;
37641;SDS011;23486;51.956;5.888;2022-09-30T11:54:27;15.25;;;13.30;;
37641;SDS011;23486;51.956;5.888;2022-09-30T11:57:10;18.90;;;13.80;;
37641;SDS011;23486;51.956;5.888;2022-09-30T11:59:54;17.83;;;12.75;;
37641;SDS011;23486;51.956;5.888;2022-09-30T12:02:26;16.00;;;11.55;;
37641;SDS011;23486;51.956;5.888;2022-09-30T12:04:54;14.07;;;11.55;;
37641;SDS011;23486;51.956;5.888;2022-09-30T12:07:34;12.73;;;10.57;;
37641;SDS011;23486;51.956;5.888;2022-09-30T12:10:22;15.02;;;11.27;;
37641;SDS011;23486;51.956;5.888;2022-09-30T12:12:53;18.52;;;11.40;;
37641;SDS011;23486;51.956;5.888;2022-09-30T12:15:25;13.27;;;11.13;;
37641;SDS011;23486;51.956;5.888;2022-09-30T12:17:54;11.98;;;8.85;;
37641;SDS011;23486;51.956;5.888;2022-09-30T12:23:37;9.98;;;7.20;;
37641;SDS011;23486;51.956;5.888;2022-09-30T12:26:08;7.73;;;6.10;;
37641;SDS011;23486;51.956;5.888;2022-09-30T12:28:39;6.80;;;5.03;;
37641;SDS011;23486;51.956;5.888;2022-09-30T12:31:37;6.40;;;4.47;;
37641;SDS011;23486;51.956;5.888;2022-09-30T12:42:44;3.85;;;2.58;;
37641;SDS011;23486;51.956;5.888;2022-09-30T12:48:02;5.93;;;3.42;;
37641;SDS011;23486;51.956;5.888;2022-09-30T12:50:39;4.28;;;2.33;;
37641;SDS011;23486;51.956;5.888;2022-09-30T12:53:32;5.45;;;2.55;;
37641;SDS011;23486;51.956;5.888;2022-09-30T12:56:09;6.65;;;1.85;;
37641;SDS011;23486;51.956;5.888;2022-09-30T12:58:48;5.03;;;1.85;;
37641;SDS011;23486;51.956;5.888;2022-09-30T13:01:16;2.83;;;1.63;;
37641;SDS011;23486;51.956;5.888;2022-09-30T13:06:23;2.90;;;1.40;;
37641;SDS011;23486;51.956;5.888;2022-09-30T13:11:42;3.30;;;0.73;;
37641;SDS011;23486;51.956;5.888;2022-09-30T13:19:40;2.38;;;0.80;;
37641;SDS011;23486;51.956;5.888;2022-09-30T13:27:34;2.38;;;0.95;;
37641;SDS011;23486;51.956;5.888;2022-09-30T13:40:49;1.70;;;0.70;;
37641;SDS011;23486;51.956;5.888;2022-09-30T13:43:25;4.35;;;0.50;;
37641;SDS011;23486;51.956;5.888;2022-09-30T13:48:49;2.05;;;0.47;;
37641;SDS011;23486;51.956;5.888;2022-09-30T13:51:29;2.70;;;0.50;;
37641;SDS011;23486;51.956;5.888;2022-09-30T13:53:58;1.88;;;0.50;;
37641;SDS011;23486;51.956;5.888;2022-09-30T13:56:34;2.25;;;0.60;;
37641;SDS011;23486;51.956;5.888;2022-09-30T14:21:33;1.42;;;0.50;;
37641;SDS011;23486;51.956;5.888;2022-09-30T14:26:45;2.75;;;0.50;;
37641;SDS011;23486;51.956;5.888;2022-09-30T14:35:04;2.80;;;0.30;;
37641;SDS011;23486;51.956;5.888;2022-09-30T14:37:35;3.03;;;0.50;;
37641;SDS011;23486;51.956;5.888;2022-09-30T14:40:14;1.13;;;0.40;;
37641;SDS011;23486;51.956;5.888;2022-09-30T14:42:57;2.58;;;0.50;;
37641;SDS011;23486;51.956;5.888;2022-09-30T14:45:27;1.90;;;0.50;;
37641;SDS011;23486;51.956;5.888;2022-09-30T14:47:56;1.50;;;0.40;;
37641;SDS011;23486;51.956;5.888;2022-09-30T14:50:27;2.78;;;0.40;;
37641;SDS011;23486;51.956;5.888;2022-09-30T14:53:01;2.40;;;0.40;;
37641;SDS011;23486;51.956;5.888;2022-09-30T14:55:32;1.00;;;0.35;;
37641;SDS011;23486;51.956;5.888;2022-09-30T15:01:21;1.70;;;0.40;;
37641;SDS011;23486;51.956;5.888;2022-09-30T15:03:45;2.20;;;0.35;;
37641;SDS011;23486;51.956;5.888;2022-09-30T15:06:25;2.15;;;0.50;;
37641;SDS011;23486;51.956;5.888;2022-09-30T15:08:58;0.98;;;0.30;;
37641;SDS011;23486;51.956;5.888;2022-09-30T15:11:26;2.15;;;0.40;;
37641;SDS011;23486;51.956;5.888;2022-09-30T15:13:57;1.30;;;0.30;;
37641;SDS011;23486;51.956;5.888;2022-09-30T15:16:30;1.92;;;0.50;;
37641;SDS011;23486;51.956;5.888;2022-09-30T15:18:57;3.42;;;0.40;;
37641;SDS011;23486;51.956;5.888;2022-09-30T15:21:23;2.17;;;0.32;;
37641;SDS011;23486;51.956;5.888;2022-09-30T15:23:51;1.63;;;0.55;;
37641;SDS011;23486;51.956;5.888;2022-09-30T15:26:22;2.83;;;0.30;;
37641;SDS011;23486;51.956;5.888;2022-09-30T15:28:49;1.15;;;0.30;;
37641;SDS011;23486;51.956;5.888;2022-09-30T15:31:26;1.98;;;0.50;;
37641;SDS011;23486;51.956;5.888;2022-09-30T15:34:05;1.15;;;0.30;;
37641;SDS011;23486;51.956;5.888;2022-09-30T15:36:55;1.33;;;0.57;;
37641;SDS011;23486;51.956;5.888;2022-09-30T15:39:27;1.55;;;0.28;;
37641;SDS011;23486;51.956;5.888;2022-09-30T15:42:18;0.98;;;0.20;;
37641;SDS011;23486;51.956;5.888;2022-09-30T15:45:02;2.85;;;0.20;;
37641;SDS011;23486;51.956;5.888;2022-09-30T15:47:52;1.88;;;0.40;;
37641;SDS011;23486;51.956;5.888;2022-09-30T15:50:36;5.25;;;0.40;;
37641;SDS011;23486;51.956;5.888;2022-09-30T15:56:35;2.45;;;0.40;;
37641;SDS011;23486;51.956;5.888;2022-09-30T15:59:11;1.55;;;0.50;;
37641;SDS011;23486;51.956;5.888;2022-09-30T16:01:49;2.35;;;0.50;;
37641;SDS011;23486;51.956;5.888;2022-09-30T16:06:46;2.55;;;0.50;;
37641;SDS011;23486;51.956;5.888;2022-09-30T16:09:28;3.15;;;0.52;;
37641;SDS011;23486;51.956;5.888;2022-09-30T16:12:06;2.63;;;0.40;;
37641;SDS011;23486;51.956;5.888;2022-09-30T16:19:56;4.68;;;0.47;;
37641;SDS011;23486;51.956;5.888;2022-09-30T16:24:59;1.30;;;0.40;;
37641;SDS011;23486;51.956;5.888;2022-09-30T16:27:35;3.65;;;0.60;;
37641;SDS011;23486;51.956;5.888;2022-09-30T16:30:02;1.33;;;0.32;;
37641;SDS011;23486;51.956;5.888;2022-09-30T16:32:31;1.10;;;0.32;;
37641;SDS011;23486;51.956;5.888;2022-09-30T16:35:03;1.85;;;0.38;;
37641;SDS011;23486;51.956;5.888;2022-09-30T16:37:30;2.38;;;0.45;;
37641;SDS011;23486;51.956;5.888;2022-09-30T16:39:57;1.42;;;0.50;;
37641;SDS011;23486;51.956;5.888;2022-09-30T16:42:29;1.73;;;0.30;;
37641;SDS011;23486;51.956;5.888;2022-09-30T16:44:56;2.13;;;0.50;;
37641;SDS011;23486;51.956;5.888;2022-09-30T16:47:24;2.65;;;0.43;;
37641;SDS011;23486;51.956;5.888;2022-09-30T16:49:50;2.22;;;0.40;;
37641;SDS011;23486;51.956;5.888;2022-09-30T16:52:16;1.77;;;0.40;;
37641;SDS011;23486;51.956;5.888;2022-09-30T16:54:41;2.15;;;0.50;;
37641;SDS011;23486;51.956;5.888;2022-09-30T16:57:07;2.08;;;0.40;;
37641;SDS011;23486;51.956;5.888;2022-09-30T16:59:36;1.40;;;0.47;;
37641;SDS011;23486;51.956;5.888;2022-09-30T17:02:03;2.20;;;0.50;;
37641;SDS011;23486;51.956;5.888;2022-09-30T17:04:29;1.92;;;0.40;;
37641;SDS011;23486;51.956;5.888;2022-09-30T17:06:55;2.15;;;0.50;;
37641;SDS011;23486;51.956;5.888;2022-09-30T17:09:22;2.38;;;0.60;;
37641;SDS011;23486;51.956;5.888;2022-09-30T17:11:51;2.25;;;0.43;;
37641;SDS011;23486;51.956;5.888;2022-09-30T17:14:17;2.20;;;0.52;;
37641;SDS011;23486;51.956;5.888;2022-09-30T17:16:43;2.08;;;0.57;;
37641;SDS011;23486;51.956;5.888;2022-09-30T17:19:10;2.30;;;0.80;;
37641;SDS011;23486;51.956;5.888;2022-09-30T17:21:36;3.17;;;0.50;;
37641;SDS011;23486;51.956;5.888;2022-09-30T17:24:02;2.45;;;0.57;;
37641;SDS011;23486;51.956;5.888;2022-09-30T17:26:28;2.95;;;0.50;;
37641;SDS011;23486;51.956;5.888;2022-09-30T17:28:54;2.53;;;0.70;;
37641;SDS011;23486;51.956;5.888;2022-09-30T17:31:23;2.22;;;0.60;;
37641;SDS011;23486;51.956;5.888;2022-09-30T17:33:48;2.30;;;0.50;;
37641;SDS011;23486;51.956;5.888;2022-09-30T17:36:17;1.75;;;0.60;;
37641;SDS011;23486;51.956;5.888;2022-09-30T17:38:43;2.05;;;0.70;;
37641;SDS011;23486;51.956;5.888;2022-09-30T17:41:15;2.47;;;0.50;;
37641;SDS011;23486;51.956;5.888;2022-09-30T17:43:59;1.35;;;0.47;;
37641;SDS011;23486;51.956;5.888;2022-09-30T17:46:26;2.67;;;0.65;;
37641;SDS011;23486;51.956;5.888;2022-09-30T17:48:55;2.25;;;0.60;;
37641;SDS011;23486;51.956;5.888;2022-09-30T17:51:21;2.45;;;0.57;;
37641;SDS011;23486;51.956;5.888;2022-09-30T17:53:47;2.22;;;0.50;;
37641;SDS011;23486;51.956;5.888;2022-09-30T17:56:14;2.53;;;0.55;;
37641;SDS011;23486;51.956;5.888;2022-09-30T17:58:46;2.17;;;0.68;;
37641;SDS011;23486;51.956;5.888;2022-09-30T18:01:15;3.97;;;0.75;;
37641;SDS011;23486;51.956;5.888;2022-09-30T18:03:41;3.00;;;0.88;;
37641;SDS011;23486;51.956;5.888;2022-09-30T18:06:10;3.13;;;1.30;;
37641;SDS011;23486;51.956;5.888;2022-09-30T18:08:38;4.55;;;1.33;;
37641;SDS011;23486;51.956;5.888;2022-09-30T18:11:04;5.53;;;1.20;;
37641;SDS011;23486;51.956;5.888;2022-09-30T18:13:30;5.38;;;1.40;;
37641;SDS011;23486;51.956;5.888;2022-09-30T18:15:56;4.93;;;1.35;;
37641;SDS011;23486;51.956;5.888;2022-09-30T18:18:25;3.83;;;1.20;;
37641;SDS011;23486;51.956;5.888;2022-09-30T18:21:14;3.08;;;0.80;;
37641;SDS011;23486;51.956;5.888;2022-09-30T18:23:39;2.35;;;0.70;;
37641;SDS011;23486;51.956;5.888;2022-09-30T18:26:05;2.72;;;0.88;;
37641;SDS011;23486;51.956;5.888;2022-09-30T18:28:33;4.60;;;1.00;;
37641;SDS011;23486;51.956;5.888;2022-09-30T18:31:05;4.15;;;1.15;;
37641;SDS011;23486;51.956;5.888;2022-09-30T18:33:32;4.38;;;0.93;;
37641;SDS011;23486;51.956;5.888;2022-09-30T18:36:04;3.33;;;1.30;;